createdAt,value
2022-12-11T00:01:58.054Z,10.13
2022-12-11T00:04:24.749Z,9.87
2022-12-11T00:06:51.081Z,11.40
2022-12-11T00:09:18.069Z,11.30
2022-12-11T00:11:44.615Z,10.43
2022-12-11T00:14:10.989Z,9.30
2022-12-11T00:16:37.357Z,10.83
2022-12-11T00:19:04.072Z,10.37
2022-12-11T00:21:30.380Z,12.17
2022-12-11T00:23:56.685Z,10.47
2022-12-11T00:26:23.049Z,9.30
2022-12-11T00:28:52.515Z,12.97
2022-12-11T00:31:19.585Z,14.27
2022-12-11T00:33:48.985Z,11.70
2022-12-11T00:36:17.161Z,12.10
2022-12-11T00:38:43.799Z,11.90
2022-12-11T00:41:10.253Z,10.87
2022-12-11T00:43:36.524Z,10.37
2022-12-11T00:46:03.053Z,10.97
2022-12-11T00:48:29.411Z,11.53
2022-12-11T00:50:55.705Z,11.13
2022-12-11T00:53:22.078Z,10.70
2022-12-11T00:55:48.349Z,13.80
2022-12-11T00:58:15.006Z,10.37
2022-12-11T01:00:41.718Z,10.93
2022-12-11T01:03:09.210Z,8.83
2022-12-11T01:05:36.679Z,10.33
2022-12-11T01:08:03.257Z,13.40
2022-12-11T01:10:29.642Z,7.80
2022-12-11T01:12:58.978Z,8.40
2022-12-11T01:15:29.831Z,9.50
2022-12-11T01:17:56.485Z,9.30
2022-12-11T01:20:23.402Z,9.93
2022-12-11T01:22:52.452Z,13.13
2022-12-11T01:25:18.805Z,8.73
2022-12-11T01:27:45.090Z,12.00
2022-12-11T01:30:11.548Z,10.37
2022-12-11T01:32:37.898Z,12.10
2022-12-11T01:35:05.499Z,9.97
2022-12-11T01:37:31.797Z,9.10
2022-12-11T01:39:58.093Z,11.73
2022-12-11T01:42:25.194Z,9.07
2022-12-11T01:44:51.472Z,10.10
2022-12-11T01:47:17.822Z,11.83
2022-12-11T01:49:44.242Z,9.40
2022-12-11T01:52:19.522Z,9.17
2022-12-11T01:54:46.397Z,9.03
2022-12-11T01:57:13.510Z,9.43
2022-12-11T01:59:41.012Z,11.60
2022-12-11T02:02:09.686Z,8.03
2022-12-11T02:04:37.483Z,9.03
2022-12-11T02:07:04.201Z,7.00
2022-12-11T02:09:32.257Z,13.10
2022-12-11T02:12:07.733Z,7.93
2022-12-11T02:14:43.261Z,12.17
2022-12-11T02:17:25.958Z,9.07
2022-12-11T02:19:52.282Z,8.53
2022-12-11T02:22:26.354Z,12.40
2022-12-11T02:24:59.773Z,9.80
2022-12-11T02:27:40.470Z,8.97
2022-12-11T02:30:07.989Z,7.93
2022-12-11T02:32:37.702Z,9.20
2022-12-11T02:35:17.266Z,8.97
2022-12-11T02:37:45.299Z,7.87
2022-12-11T02:40:12.885Z,8.53
2022-12-11T02:42:40.680Z,7.20
2022-12-11T02:45:08.053Z,8.03
2022-12-11T02:47:35.184Z,10.73
2022-12-11T02:50:02.641Z,8.60
2022-12-11T02:52:30.438Z,6.17
2022-12-11T02:54:57.982Z,11.50
2022-12-11T02:57:28.301Z,8.43
2022-12-11T02:59:54.588Z,8.27
2022-12-11T03:02:21.086Z,6.73
2022-12-11T03:04:47.986Z,9.90
2022-12-11T03:07:25.929Z,10.20
2022-12-11T03:09:52.485Z,8.27
2022-12-11T03:12:20.249Z,10.00
2022-12-11T03:14:47.991Z,7.70
2022-12-11T03:17:15.888Z,8.03
2022-12-11T03:20:07.163Z,7.00
2022-12-11T03:22:33.673Z,8.47
2022-12-11T03:25:06.966Z,6.67
2022-12-11T03:27:36.727Z,7.13
2022-12-11T03:30:11.326Z,9.67
2022-12-11T03:32:47.670Z,7.28
2022-12-11T03:35:19.617Z,6.83
2022-12-11T03:37:46.422Z,10.27
2022-12-11T03:40:15.934Z,7.23
2022-12-11T03:42:43.623Z,8.37
2022-12-11T03:45:10.796Z,6.03
2022-12-11T03:47:39.243Z,6.77
2022-12-11T03:50:07.624Z,7.43
2022-12-11T03:52:34.563Z,8.73
2022-12-11T03:55:02.958Z,8.97
2022-12-11T03:57:30.931Z,8.17
2022-12-11T03:59:57.317Z,10.50
2022-12-11T04:02:23.639Z,6.90
2022-12-11T04:04:49.971Z,7.37
2022-12-11T04:07:16.325Z,6.13
2022-12-11T04:09:42.614Z,9.40
2022-12-11T04:12:08.893Z,7.43
2022-12-11T04:14:53.682Z,7.50
2022-12-11T04:17:49.298Z,5.32
2022-12-11T04:20:34.302Z,9.02
2022-12-11T04:23:19.303Z,6.53
2022-12-11T04:25:45.670Z,6.28
2022-12-11T04:28:11.942Z,6.27
2022-12-11T04:30:38.229Z,6.47
2022-12-11T04:33:04.760Z,5.43
2022-12-11T04:35:31.206Z,6.93
2022-12-11T04:37:57.620Z,5.33
2022-12-11T04:40:24.166Z,6.90
2022-12-11T04:42:50.479Z,5.43
2022-12-11T04:45:16.981Z,6.97
2022-12-11T04:47:43.239Z,5.60
2022-12-11T04:50:10.479Z,8.63
2022-12-11T04:52:36.760Z,7.50
2022-12-11T04:55:04.462Z,6.57
2022-12-11T04:57:30.764Z,8.10
2022-12-11T04:59:57.051Z,8.13
2022-12-11T05:02:23.469Z,6.20
2022-12-11T05:04:49.790Z,7.30
2022-12-11T05:07:16.088Z,7.47
2022-12-11T05:09:42.387Z,7.03
2022-12-11T05:12:09.184Z,5.93
2022-12-11T05:14:35.496Z,6.53
2022-12-11T05:17:01.786Z,6.80
2022-12-11T05:19:28.082Z,6.00
2022-12-11T05:21:54.358Z,6.40
2022-12-11T05:24:20.635Z,4.33
2022-12-11T05:26:46.925Z,6.17
2022-12-11T05:29:13.227Z,6.10
2022-12-11T05:31:39.533Z,5.67
2022-12-11T05:34:05.825Z,6.90
2022-12-11T05:36:33.073Z,5.33
2022-12-11T05:38:59.578Z,6.80
2022-12-11T05:41:27.033Z,7.33
2022-12-11T05:43:53.669Z,6.30
2022-12-11T05:46:21.397Z,6.30
2022-12-11T05:48:48.578Z,7.17
2022-12-11T05:51:15.794Z,6.10
2022-12-11T05:53:43.248Z,7.30
2022-12-11T05:56:17.327Z,6.37
2022-12-11T05:58:44.020Z,4.60
2022-12-11T06:01:11.594Z,8.10
2022-12-11T06:03:38.026Z,7.80
2022-12-11T06:06:04.862Z,7.13
2022-12-11T06:08:31.525Z,6.77
2022-12-11T06:10:58.105Z,5.93
2022-12-11T06:13:24.384Z,6.23
2022-12-11T06:15:50.755Z,6.93
2022-12-11T06:18:17.102Z,6.60
2022-12-11T06:20:43.486Z,7.53
2022-12-11T06:23:09.866Z,6.27
2022-12-11T06:25:38.348Z,6.00
2022-12-11T06:28:04.723Z,8.00
2022-12-11T06:30:38.642Z,5.37
2022-12-11T06:33:06.079Z,5.57
2022-12-11T06:35:35.045Z,7.30
2022-12-11T06:38:05.117Z,6.43
2022-12-11T06:40:31.434Z,9.47
2022-12-11T06:42:57.720Z,7.10
2022-12-11T06:45:24.022Z,6.97
2022-12-11T06:47:50.333Z,6.03
2022-12-11T06:50:16.681Z,6.50
2022-12-11T06:52:42.962Z,7.17
2022-12-11T06:55:09.614Z,6.87
2022-12-11T06:57:36.868Z,8.00
2022-12-11T07:00:03.348Z,5.77
2022-12-11T07:02:29.700Z,6.63
2022-12-11T07:04:56.027Z,5.73
2022-12-11T07:07:22.301Z,4.83
2022-12-11T07:09:48.609Z,6.03
2022-12-11T07:12:14.871Z,6.43
2022-12-11T07:14:41.149Z,6.03
2022-12-11T07:17:07.699Z,4.97
2022-12-11T07:19:34.209Z,6.30
2022-12-11T07:22:00.505Z,6.27
2022-12-11T07:24:26.781Z,6.03
2022-12-11T07:26:53.310Z,6.13
2022-12-11T07:29:19.692Z,5.77
2022-12-11T07:31:45.978Z,4.67
2022-12-11T07:34:12.644Z,4.83
2022-12-11T07:36:38.998Z,3.60
2022-12-11T07:39:05.428Z,5.17
2022-12-11T07:41:31.876Z,4.40
2022-12-11T07:43:59.229Z,4.40
2022-12-11T07:46:26.704Z,5.93
2022-12-11T07:48:53.239Z,4.73
2022-12-11T07:51:22.718Z,4.40
2022-12-11T07:53:49.854Z,5.27
2022-12-11T07:56:17.033Z,4.97
2022-12-11T07:58:43.681Z,4.67
2022-12-11T08:01:13.953Z,5.87
2022-12-11T08:03:40.275Z,6.13
2022-12-11T08:06:06.763Z,4.17
2022-12-11T08:08:33.069Z,5.57
2022-12-11T08:11:03.121Z,5.47
2022-12-11T08:13:29.390Z,4.13
2022-12-11T08:15:55.658Z,4.60
2022-12-11T08:18:21.998Z,5.27
2022-12-11T08:20:48.336Z,4.17
2022-12-11T08:23:14.641Z,4.60
2022-12-11T08:25:40.898Z,4.47
2022-12-11T08:28:07.182Z,4.33
2022-12-11T08:30:33.532Z,4.73
2022-12-11T08:32:59.803Z,4.30
2022-12-11T08:35:26.447Z,5.60
2022-12-11T08:37:52.719Z,5.77
2022-12-11T08:40:19.024Z,4.73
2022-12-11T08:42:45.331Z,5.50
2022-12-11T08:45:11.989Z,4.67
2022-12-11T08:47:38.595Z,5.20
2022-12-11T08:50:05.048Z,3.83
2022-12-11T08:52:31.490Z,4.70
2022-12-11T08:54:58.330Z,5.47
2022-12-11T08:57:24.631Z,4.20
2022-12-11T08:59:50.941Z,5.03
2022-12-11T09:02:17.240Z,6.37
2022-12-11T09:04:43.782Z,5.53
2022-12-11T09:07:10.046Z,4.77
2022-12-11T09:09:36.459Z,5.27
2022-12-11T09:12:04.586Z,6.70
2022-12-11T09:14:30.920Z,5.30
2022-12-11T09:16:57.205Z,5.70
2022-12-11T09:19:26.681Z,4.10
2022-12-11T09:21:57.018Z,6.40
2022-12-11T09:24:23.294Z,4.77
2022-12-11T09:26:49.596Z,5.70
2022-12-11T09:29:15.889Z,4.07
2022-12-11T09:31:42.187Z,5.93
2022-12-11T09:34:09.550Z,6.20
2022-12-11T09:36:37.913Z,4.53
2022-12-11T09:39:05.562Z,4.53
2022-12-11T09:41:31.813Z,7.47
2022-12-11T09:44:16.636Z,5.53
2022-12-11T09:46:43.388Z,4.30
2022-12-11T09:49:16.813Z,5.47
2022-12-11T09:51:46.309Z,5.10
2022-12-11T09:54:13.640Z,8.20
2022-12-11T09:56:45.506Z,4.90
2022-12-11T09:59:20.783Z,7.50
2022-12-11T10:01:54.895Z,5.93
2022-12-11T10:04:24.223Z,7.27
2022-12-11T10:07:08.062Z,6.33
2022-12-11T10:09:43.272Z,7.67
2022-12-11T10:12:12.772Z,8.17
2022-12-11T10:14:41.814Z,7.73
2022-12-11T10:17:28.458Z,6.20
2022-12-11T10:19:56.943Z,7.33
2022-12-11T10:22:26.071Z,7.67
2022-12-11T10:25:10.535Z,10.30
2022-12-11T10:27:38.817Z,8.90
2022-12-11T10:30:22.629Z,9.23
2022-12-11T10:32:53.749Z,9.77
2022-12-11T10:35:29.506Z,8.13
2022-12-11T10:37:58.077Z,9.40
2022-12-11T10:40:25.316Z,8.93
2022-12-11T10:42:53.142Z,11.20
2022-12-11T10:45:19.498Z,11.63
2022-12-11T10:47:45.979Z,8.43
2022-12-11T10:50:22.834Z,9.20
2022-12-11T10:52:49.140Z,8.57
2022-12-11T10:55:21.274Z,8.77
2022-12-11T10:57:54.809Z,12.40
2022-12-11T11:00:30.538Z,10.30
2022-12-11T11:02:57.636Z,11.00
2022-12-11T11:05:29.709Z,8.97
2022-12-11T11:08:14.816Z,10.33
2022-12-11T11:10:51.659Z,8.15
2022-12-11T11:13:18.054Z,9.63
2022-12-11T11:15:44.807Z,11.83
2022-12-11T11:18:12.692Z,10.87
2022-12-11T11:20:43.757Z,9.80
2022-12-11T11:23:12.289Z,10.60
2022-12-11T11:25:38.607Z,9.63
2022-12-11T11:28:06.196Z,9.67
2022-12-11T11:30:36.610Z,10.10
2022-12-11T11:33:12.251Z,8.27
2022-12-11T11:35:40.165Z,10.50
2022-12-11T11:38:08.966Z,8.70
2022-12-11T11:40:45.620Z,9.87
2022-12-11T11:43:30.449Z,9.67
2022-12-11T11:45:58.394Z,9.60
2022-12-11T11:48:29.523Z,10.87
2022-12-11T11:50:57.879Z,10.60
2022-12-11T11:53:28.755Z,8.80
2022-12-11T11:56:24.232Z,8.03
2022-12-11T11:58:57.490Z,7.75
2022-12-11T12:01:24.120Z,10.53
2022-12-11T12:03:50.873Z,12.43
2022-12-11T12:06:26.996Z,11.80
2022-12-11T12:08:56.072Z,12.20
2022-12-11T12:11:22.571Z,11.73
2022-12-11T12:13:53.597Z,12.27
2022-12-11T12:16:55.120Z,11.17
2022-12-11T12:19:21.438Z,12.97
2022-12-11T12:21:51.002Z,12.10
2022-12-11T12:24:17.264Z,13.07
2022-12-11T12:26:46.987Z,11.77
2022-12-11T12:29:19.356Z,15.40
2022-12-11T12:31:53.416Z,12.30
2022-12-11T12:34:27.323Z,11.47
2022-12-11T12:36:56.918Z,11.23
2022-12-11T12:39:46.379Z,11.67
2022-12-11T12:42:19.790Z,10.87
2022-12-11T12:44:52.054Z,11.33
2022-12-11T12:47:18.759Z,10.83
2022-12-11T12:49:46.318Z,10.63
2022-12-11T12:52:20.703Z,10.07
2022-12-11T12:55:08.829Z,11.45
2022-12-11T12:57:36.722Z,8.63
2022-12-11T13:00:09.580Z,11.00
2022-12-11T13:02:48.243Z,10.47
2022-12-11T13:05:20.180Z,9.63
2022-12-11T13:07:54.367Z,8.53
2022-12-11T13:10:56.721Z,11.07
2022-12-11T13:13:35.008Z,9.87
2022-12-11T13:16:16.521Z,9.43
2022-12-11T13:18:49.797Z,10.07
2022-12-11T13:21:30.078Z,9.63
2022-12-11T13:24:12.511Z,9.97
2022-12-11T13:26:39.253Z,10.00
2022-12-11T13:29:06.040Z,8.30
2022-12-11T13:31:34.672Z,9.53
2022-12-11T13:34:27.121Z,9.17
2022-12-11T13:36:54.275Z,7.37
2022-12-11T13:39:24.752Z,11.00
2022-12-11T13:41:56.831Z,7.60
2022-12-11T13:44:27.331Z,9.67
2022-12-11T13:46:55.123Z,8.80
2022-12-11T13:49:27.014Z,8.57
2022-12-11T13:52:00.089Z,8.27
2022-12-11T13:54:27.833Z,7.67
2022-12-11T13:56:55.213Z,8.63
2022-12-11T13:59:27.795Z,9.60
2022-12-11T14:01:55.592Z,8.63
2022-12-11T14:04:22.598Z,7.97
2022-12-11T14:06:49.221Z,8.70
2022-12-11T14:09:18.137Z,7.73
2022-12-11T14:11:46.079Z,9.20
2022-12-11T14:14:23.277Z,9.17
2022-12-11T14:16:50.659Z,8.27
2022-12-11T14:19:19.075Z,7.70
2022-12-11T14:21:55.187Z,7.53
2022-12-11T14:24:21.609Z,9.70
2022-12-11T14:26:51.629Z,7.83
2022-12-11T14:29:27.218Z,8.20
2022-12-11T14:31:53.995Z,9.50
2022-12-11T14:34:28.143Z,7.93
2022-12-11T14:36:54.865Z,8.80
2022-12-11T14:39:26.222Z,8.57
2022-12-11T14:42:18.689Z,7.90
2022-12-11T14:45:14.511Z,8.10
2022-12-11T14:47:42.136Z,7.10
2022-12-11T14:50:17.917Z,9.70
2022-12-11T14:52:47.324Z,8.30
2022-12-11T14:55:24.997Z,8.20
2022-12-11T14:57:55.159Z,7.30
2022-12-11T15:00:22.867Z,8.37
2022-12-11T15:03:06.462Z,9.10
2022-12-11T15:05:40.267Z,6.67
2022-12-11T15:08:09.938Z,8.50
2022-12-11T15:10:37.567Z,9.37
2022-12-11T15:13:05.835Z,8.50
2022-12-11T15:15:37.692Z,8.03
2022-12-11T15:18:06.698Z,5.97
2022-12-11T15:20:32.972Z,8.93
2022-12-11T15:23:01.643Z,6.27
2022-12-11T15:25:28.885Z,8.30
2022-12-11T15:27:56.700Z,7.97
2022-12-11T15:30:26.796Z,9.33
2022-12-11T15:33:03.625Z,8.03
2022-12-11T15:35:30.262Z,8.30
2022-12-11T15:37:57.600Z,8.37
2022-12-11T15:40:24.500Z,8.33
2022-12-11T15:42:50.965Z,8.50
2022-12-11T15:45:17.212Z,9.93
2022-12-11T15:47:43.903Z,9.20
2022-12-11T15:50:13.426Z,8.57
2022-12-11T15:52:39.988Z,8.90
2022-12-11T15:55:06.364Z,8.80
2022-12-11T15:57:32.630Z,9.43
2022-12-11T15:59:59.052Z,10.17
2022-12-11T16:02:27.641Z,9.70
2022-12-11T16:04:54.151Z,10.80
2022-12-11T16:07:24.157Z,9.03
2022-12-11T16:09:50.454Z,10.57
2022-12-11T16:12:16.904Z,11.07
2022-12-11T16:14:43.956Z,8.53
2022-12-11T16:17:10.646Z,7.87
2022-12-11T16:19:37.287Z,9.13
2022-12-11T16:22:03.693Z,9.30
2022-12-11T16:24:29.965Z,9.50
2022-12-11T16:26:56.327Z,9.07
2022-12-11T16:29:22.761Z,9.07
2022-12-11T16:31:49.111Z,8.60
2022-12-11T16:34:15.419Z,9.00
2022-12-11T16:36:41.761Z,9.73
2022-12-11T16:39:10.157Z,8.53
2022-12-11T16:41:36.630Z,8.47
2022-12-11T16:44:03.569Z,8.47
2022-12-11T16:46:29.902Z,8.53
2022-12-11T16:48:56.221Z,7.83
2022-12-11T16:51:22.567Z,8.47
2022-12-11T16:53:48.901Z,8.57
2022-12-11T16:56:15.197Z,9.47
2022-12-11T16:58:41.750Z,9.80
2022-12-11T17:01:11.913Z,9.67
2022-12-11T17:03:38.579Z,9.93
2022-12-11T17:06:10.129Z,8.47
2022-12-11T17:08:36.954Z,9.30
2022-12-11T17:11:06.946Z,9.17
2022-12-11T17:13:36.174Z,8.73
2022-12-11T17:16:06.855Z,8.77
2022-12-11T17:18:33.533Z,8.17
2022-12-11T17:21:00.278Z,9.00
2022-12-11T17:23:26.575Z,9.10
2022-12-11T17:25:52.851Z,9.63
2022-12-11T17:28:19.160Z,8.67
2022-12-11T17:30:45.588Z,10.13
2022-12-11T17:33:11.978Z,7.80
2022-12-11T17:35:38.514Z,9.67
2022-12-11T17:38:05.039Z,8.70
2022-12-11T17:40:31.371Z,8.80
2022-12-11T17:42:57.675Z,9.07
2022-12-11T17:45:23.950Z,8.57
2022-12-11T17:47:50.221Z,8.90
2022-12-11T17:50:16.560Z,7.93
2022-12-11T17:52:44.420Z,7.70
2022-12-11T17:55:11.225Z,8.40
2022-12-11T17:57:37.958Z,8.47
2022-12-11T18:00:04.816Z,8.17
2022-12-11T18:02:31.330Z,8.07
2022-12-11T18:04:57.639Z,9.27
2022-12-11T18:07:25.202Z,8.43
2022-12-11T18:09:51.506Z,7.57
2022-12-11T18:12:17.800Z,7.40
2022-12-11T18:14:44.082Z,7.60
2022-12-11T18:17:10.343Z,9.40
2022-12-11T18:19:39.178Z,6.87
2022-12-11T18:22:09.124Z,7.93
2022-12-11T18:24:35.398Z,9.43
2022-12-11T18:27:02.623Z,8.47
2022-12-11T18:29:28.913Z,7.87
2022-12-11T18:31:55.262Z,8.67
2022-12-11T18:34:21.593Z,7.30
2022-12-11T18:36:47.974Z,7.40
2022-12-11T18:39:14.353Z,7.07
2022-12-11T18:41:40.630Z,7.30
2022-12-11T18:44:10.006Z,6.93
2022-12-11T18:46:36.666Z,8.23
2022-12-11T18:49:03.026Z,7.77
2022-12-11T18:51:29.324Z,8.43
2022-12-11T18:53:55.673Z,7.47
2022-12-11T18:56:22.394Z,6.90
2022-12-11T18:58:48.869Z,8.30
2022-12-11T19:01:25.804Z,8.13
2022-12-11T19:04:00.797Z,8.17
2022-12-11T19:06:32.011Z,6.60
2022-12-11T19:08:59.652Z,7.43
2022-12-11T19:11:26.985Z,8.50
2022-12-11T19:13:53.855Z,7.87
2022-12-11T19:16:24.603Z,8.53
2022-12-11T19:18:51.196Z,8.70
2022-12-11T19:21:17.966Z,7.40
2022-12-11T19:23:44.989Z,9.43
2022-12-11T19:26:12.128Z,7.43
2022-12-11T19:28:38.705Z,9.80
2022-12-11T19:31:08.531Z,9.10
2022-12-11T19:33:34.839Z,8.80
2022-12-11T19:36:02.030Z,7.77
2022-12-11T19:38:28.525Z,6.37
2022-12-11T19:40:54.792Z,7.73
2022-12-11T19:43:21.294Z,8.90
2022-12-11T19:45:48.199Z,7.47
2022-12-11T19:48:14.536Z,7.83
2022-12-11T19:50:40.837Z,9.90
2022-12-11T19:53:07.255Z,8.47
2022-12-11T19:55:33.560Z,10.60
2022-12-11T19:57:59.845Z,9.97
2022-12-11T20:00:26.124Z,7.03
2022-12-11T20:02:52.441Z,7.60
2022-12-11T20:05:18.813Z,8.43
2022-12-11T20:07:45.298Z,9.67
2022-12-11T20:10:11.789Z,8.43
2022-12-11T20:12:38.067Z,9.30
2022-12-11T20:15:05.025Z,8.63
2022-12-11T20:17:33.186Z,8.47
2022-12-11T20:19:59.471Z,9.10
2022-12-11T20:22:25.743Z,7.67
2022-12-11T20:24:52.075Z,9.23
2022-12-11T20:27:18.347Z,8.37
2022-12-11T20:29:44.606Z,9.43
2022-12-11T20:32:14.199Z,8.63
2022-12-11T20:34:41.166Z,10.00
2022-12-11T20:37:07.888Z,6.47
2022-12-11T20:39:34.192Z,9.37
2022-12-11T20:42:04.613Z,9.87
2022-12-11T20:44:31.503Z,8.77
2022-12-11T20:46:57.840Z,7.67
2022-12-11T20:49:24.092Z,9.47
2022-12-11T20:51:50.358Z,9.73
2022-12-11T20:54:16.647Z,10.57
2022-12-11T20:56:42.909Z,8.53
2022-12-11T20:59:10.440Z,9.40
2022-12-11T21:01:36.823Z,10.17
2022-12-11T21:04:03.135Z,9.47
2022-12-11T21:06:34.200Z,9.10
2022-12-11T21:09:02.613Z,9.50
2022-12-11T21:11:29.013Z,9.70
2022-12-11T21:13:55.341Z,8.87
2022-12-11T21:16:22.019Z,11.23
2022-12-11T21:18:48.476Z,9.57
2022-12-11T21:21:15.506Z,10.87
2022-12-11T21:23:41.894Z,9.67
2022-12-11T21:26:08.175Z,8.80
2022-12-11T21:28:35.635Z,10.77
2022-12-11T21:31:03.094Z,9.70
2022-12-11T21:33:29.379Z,8.90
2022-12-11T21:35:59.486Z,10.40
2022-12-11T21:38:26.220Z,8.90
2022-12-11T21:40:52.761Z,10.30
2022-12-11T21:43:19.400Z,10.83
2022-12-11T21:46:00.889Z,11.10
2022-12-11T21:48:28.676Z,10.67
2022-12-11T21:50:54.959Z,10.07
2022-12-11T21:53:21.213Z,9.57
2022-12-11T21:55:47.468Z,10.87
2022-12-11T21:58:13.733Z,8.87
2022-12-11T22:00:40.012Z,9.10
2022-12-11T22:03:06.405Z,9.17
2022-12-11T22:05:32.801Z,9.60
2022-12-11T22:07:59.148Z,9.87
2022-12-11T22:10:25.493Z,10.40
2022-12-11T22:12:52.429Z,11.67
2022-12-11T22:15:18.709Z,11.80
2022-12-11T22:17:44.999Z,9.17
2022-12-11T22:20:11.493Z,10.10
2022-12-11T22:22:37.768Z,9.13
2022-12-11T22:25:06.954Z,8.40
2022-12-11T22:27:33.496Z,9.90
2022-12-11T22:29:59.972Z,10.90
2022-12-11T22:32:27.445Z,11.07
2022-12-11T22:34:53.877Z,9.73
2022-12-11T22:37:20.199Z,10.83
2022-12-11T22:39:46.506Z,8.30
2022-12-11T22:42:12.778Z,9.83
2022-12-11T22:44:39.319Z,10.23
2022-12-11T22:47:05.597Z,9.40
2022-12-11T22:49:31.858Z,10.80
2022-12-11T22:51:58.170Z,9.13
2022-12-11T22:54:24.564Z,8.57
2022-12-11T22:56:50.876Z,8.83
2022-12-11T22:59:17.163Z,8.33
2022-12-11T23:01:43.706Z,10.53
2022-12-11T23:04:09.989Z,12.33
2022-12-11T23:06:36.268Z,9.27
2022-12-11T23:09:03.029Z,7.50
2022-12-11T23:11:30.819Z,9.37
2022-12-11T23:13:57.106Z,7.30
2022-12-11T23:16:25.304Z,9.77
2022-12-11T23:18:52.090Z,9.57
2022-12-11T23:21:18.732Z,8.60
2022-12-11T23:23:45.008Z,10.87
2022-12-11T23:26:12.695Z,10.10
2022-12-11T23:28:38.996Z,8.50
2022-12-11T23:31:05.453Z,9.57
2022-12-11T23:33:31.775Z,8.03
2022-12-11T23:35:58.543Z,10.57
2022-12-11T23:38:25.039Z,8.97
2022-12-11T23:40:51.410Z,9.13
2022-12-11T23:43:17.868Z,9.23
2022-12-11T23:45:44.716Z,9.47
2022-12-11T23:48:12.524Z,9.93
2022-12-11T23:50:39.323Z,8.73
2022-12-11T23:53:05.726Z,9.63
2022-12-11T23:55:32.011Z,10.07
2022-12-11T23:57:58.295Z,8.77
